sensor_id;sensor_type;location;lat;lon;timestamp;temperature;humidity
19389;DHT22;9830;41.876;23.474;2023-02-15T00:01:46;-5.50;99.90
19389;DHT22;9830;41.876;23.474;2023-02-15T00:04:17;-5.50;99.90
19389;DHT22;9830;41.876;23.474;2023-02-15T00:06:43;-5.60;99.90
19389;DHT22;9830;41.876;23.474;2023-02-15T00:09:10;-5.50;99.90
19389;DHT22;9830;41.876;23.474;2023-02-15T00:11:36;-5.50;99.90
19389;DHT22;9830;41.876;23.474;2023-02-15T00:14:16;-5.50;99.90
19389;DHT22;9830;41.876;23.474;2023-02-15T00:16:43;-5.50;99.90
19389;DHT22;9830;41.876;23.474;2023-02-15T00:19:10;-5.60;99.90
19389;DHT22;9830;41.876;23.474;2023-02-15T00:21:37;-5.60;99.90
19389;DHT22;9830;41.876;23.474;2023-02-15T00:24:06;-5.50;99.90
19389;DHT22;9830;41.876;23.474;2023-02-15T00:26:32;-5.50;99.90
19389;DHT22;9830;41.876;23.474;2023-02-15T00:28:58;-5.50;99.90
19389;DHT22;9830;41.876;23.474;2023-02-15T00:31:25;-5.50;99.90
19389;DHT22;9830;41.876;23.474;2023-02-15T00:33:51;-5.60;99.90
19389;DHT22;9830;41.876;23.474;2023-02-15T00:36:16;-5.50;99.90
19389;DHT22;9830;41.876;23.474;2023-02-15T00:38:42;-5.50;99.90
19389;DHT22;9830;41.876;23.474;2023-02-15T00:41:09;-5.50;99.90
19389;DHT22;9830;41.876;23.474;2023-02-15T00:43:35;-5.50;99.90
19389;DHT22;9830;41.876;23.474;2023-02-15T00:46:03;-5.50;99.90
19389;DHT22;9830;41.876;23.474;2023-02-15T00:48:29;-5.50;99.90
19389;DHT22;9830;41.876;23.474;2023-02-15T00:50:57;-5.60;99.90
19389;DHT22;9830;41.876;23.474;2023-02-15T00:53:24;-5.70;99.90
19389;DHT22;9830;41.876;23.474;2023-02-15T00:55:50;-5.70;99.90
19389;DHT22;9830;41.876;23.474;2023-02-15T00:58:16;-5.70;99.90
19389;DHT22;9830;41.876;23.474;2023-02-15T01:00:46;-5.80;99.90
19389;DHT22;9830;41.876;23.474;2023-02-15T01:03:13;-5.80;99.90
19389;DHT22;9830;41.876;23.474;2023-02-15T01:05:39;-5.90;99.90
19389;DHT22;9830;41.876;23.474;2023-02-15T01:08:05;-5.90;99.90
19389;DHT22;9830;41.876;23.474;2023-02-15T01:10:31;-5.90;99.90
19389;DHT22;9830;41.876;23.474;2023-02-15T01:12:58;-5.90;99.90
19389;DHT22;9830;41.876;23.474;2023-02-15T01:15:24;-5.90;99.90
19389;DHT22;9830;41.876;23.474;2023-02-15T01:17:50;-5.90;99.90
19389;DHT22;9830;41.876;23.474;2023-02-15T01:20:20;-5.90;99.90
19389;DHT22;9830;41.876;23.474;2023-02-15T01:22:46;-5.90;99.90
19389;DHT22;9830;41.876;23.474;2023-02-15T01:25:12;-6.00;99.90
19389;DHT22;9830;41.876;23.474;2023-02-15T01:27:38;-6.00;99.90
19389;DHT22;9830;41.876;23.474;2023-02-15T01:30:04;-6.00;99.90
19389;DHT22;9830;41.876;23.474;2023-02-15T01:32:30;-5.90;99.90
19389;DHT22;9830;41.876;23.474;2023-02-15T01:34:56;-6.00;99.90
19389;DHT22;9830;41.876;23.474;2023-02-15T01:37:22;-5.90;99.90
19389;DHT22;9830;41.876;23.474;2023-02-15T01:39:48;-6.00;99.90
19389;DHT22;9830;41.876;23.474;2023-02-15T01:42:13;-6.00;99.90
19389;DHT22;9830;41.876;23.474;2023-02-15T01:44:49;-6.00;99.90
19389;DHT22;9830;41.876;23.474;2023-02-15T01:50:22;-6.10;99.90
19389;DHT22;9830;41.876;23.474;2023-02-15T01:55:42;-6.30;99.90
19389;DHT22;9830;41.876;23.474;2023-02-15T01:58:09;-6.30;99.90
19389;DHT22;9830;41.876;23.474;2023-02-15T02:00:35;-6.40;99.90
19389;DHT22;9830;41.876;23.474;2023-02-15T02:03:01;-6.40;99.90
19389;DHT22;9830;41.876;23.474;2023-02-15T02:05:29;-6.40;99.90
19389;DHT22;9830;41.876;23.474;2023-02-15T02:07:58;-6.40;99.90
19389;DHT22;9830;41.876;23.474;2023-02-15T02:10:25;-6.40;99.90
19389;DHT22;9830;41.876;23.474;2023-02-15T02:12:54;-6.40;99.90
19389;DHT22;9830;41.876;23.474;2023-02-15T02:15:34;-6.40;99.90
19389;DHT22;9830;41.876;23.474;2023-02-15T02:18:11;-6.40;99.90
19389;DHT22;9830;41.876;23.474;2023-02-15T02:23:27;-6.60;99.90
19389;DHT22;9830;41.876;23.474;2023-02-15T02:40:19;-6.70;99.90
19389;DHT22;9830;41.876;23.474;2023-02-15T02:43:10;-6.70;99.90
19389;DHT22;9830;41.876;23.474;2023-02-15T02:45:58;-6.60;99.90
19389;DHT22;9830;41.876;23.474;2023-02-15T02:48:27;-6.60;99.90
19389;DHT22;9830;41.876;23.474;2023-02-15T02:50:54;-6.60;99.90
19389;DHT22;9830;41.876;23.474;2023-02-15T02:53:20;-6.60;99.90
19389;DHT22;9830;41.876;23.474;2023-02-15T02:55:56;-6.60;99.90
19389;DHT22;9830;41.876;23.474;2023-02-15T02:58:44;-6.60;99.90
19389;DHT22;9830;41.876;23.474;2023-02-15T03:03:49;-6.60;99.90
19389;DHT22;9830;41.876;23.474;2023-02-15T03:12:14;-6.80;99.90
19389;DHT22;9830;41.876;23.474;2023-02-15T03:14:44;-6.80;99.90
19389;DHT22;9830;41.876;23.474;2023-02-15T03:17:13;-6.90;99.90
19389;DHT22;9830;41.876;23.474;2023-02-15T03:19:40;-6.90;99.90
19389;DHT22;9830;41.876;23.474;2023-02-15T03:22:17;-6.90;99.90
19389;DHT22;9830;41.876;23.474;2023-02-15T03:27:22;-6.90;99.90
19389;DHT22;9830;41.876;23.474;2023-02-15T03:29:53;-7.00;99.90
19389;DHT22;9830;41.876;23.474;2023-02-15T03:32:20;-7.00;99.90
19389;DHT22;9830;41.876;23.474;2023-02-15T03:34:47;-7.10;99.90
19389;DHT22;9830;41.876;23.474;2023-02-15T03:37:22;-7.10;99.90
19389;DHT22;9830;41.876;23.474;2023-02-15T03:40:02;-7.10;99.90
19389;DHT22;9830;41.876;23.474;2023-02-15T03:43:02;-7.10;99.90
19389;DHT22;9830;41.876;23.474;2023-02-15T03:45:31;-7.20;99.90
19389;DHT22;9830;41.876;23.474;2023-02-15T03:48:00;-7.20;99.90
19389;DHT22;9830;41.876;23.474;2023-02-15T03:50:31;-7.20;99.90
19389;DHT22;9830;41.876;23.474;2023-02-15T03:53:18;-7.20;99.90
19389;DHT22;9830;41.876;23.474;2023-02-15T03:55:50;-7.20;99.90
19389;DHT22;9830;41.876;23.474;2023-02-15T03:58:18;-7.20;99.90
19389;DHT22;9830;41.876;23.474;2023-02-15T04:01:27;-7.10;99.90
19389;DHT22;9830;41.876;23.474;2023-02-15T04:04:28;-7.20;99.90
19389;DHT22;9830;41.876;23.474;2023-02-15T04:06:56;-7.20;99.90
19389;DHT22;9830;41.876;23.474;2023-02-15T04:09:22;-7.20;99.90
19389;DHT22;9830;41.876;23.474;2023-02-15T04:12:06;-7.20;99.90
19389;DHT22;9830;41.876;23.474;2023-02-15T04:14:32;-7.30;99.90
19389;DHT22;9830;41.876;23.474;2023-02-15T04:17:16;-7.30;99.90
19389;DHT22;9830;41.876;23.474;2023-02-15T04:19:42;-7.30;99.90
19389;DHT22;9830;41.876;23.474;2023-02-15T04:22:26;-7.30;99.90
19389;DHT22;9830;41.876;23.474;2023-02-15T04:25:11;-7.40;99.90
19389;DHT22;9830;41.876;23.474;2023-02-15T04:27:41;-7.50;99.90
19389;DHT22;9830;41.876;23.474;2023-02-15T04:30:08;-7.50;99.90
19389;DHT22;9830;41.876;23.474;2023-02-15T04:32:35;-7.40;99.90
19389;DHT22;9830;41.876;23.474;2023-02-15T04:35:01;-7.40;99.90
19389;DHT22;9830;41.876;23.474;2023-02-15T04:37:26;-7.50;99.90
19389;DHT22;9830;41.876;23.474;2023-02-15T04:39:53;-7.40;99.90
19389;DHT22;9830;41.876;23.474;2023-02-15T04:42:19;-7.40;99.90
19389;DHT22;9830;41.876;23.474;2023-02-15T04:44:44;-7.30;99.90
19389;DHT22;9830;41.876;23.474;2023-02-15T04:47:10;-7.30;99.90
19389;DHT22;9830;41.876;23.474;2023-02-15T04:49:36;-7.40;99.90
19389;DHT22;9830;41.876;23.474;2023-02-15T04:52:01;-7.50;99.90
19389;DHT22;9830;41.876;23.474;2023-02-15T04:54:27;-7.50;99.90
19389;DHT22;9830;41.876;23.474;2023-02-15T04:56:53;-7.50;99.90
19389;DHT22;9830;41.876;23.474;2023-02-15T04:59:18;-7.50;99.90
19389;DHT22;9830;41.876;23.474;2023-02-15T05:01:44;-7.60;99.90
19389;DHT22;9830;41.876;23.474;2023-02-15T05:04:10;-7.50;99.90
19389;DHT22;9830;41.876;23.474;2023-02-15T05:06:35;-7.50;99.90
19389;DHT22;9830;41.876;23.474;2023-02-15T05:09:01;-7.50;99.90
19389;DHT22;9830;41.876;23.474;2023-02-15T05:11:27;-7.50;99.90
19389;DHT22;9830;41.876;23.474;2023-02-15T05:13:53;-7.50;99.90
19389;DHT22;9830;41.876;23.474;2023-02-15T05:16:18;-7.50;99.90
19389;DHT22;9830;41.876;23.474;2023-02-15T05:18:44;-7.50;99.90
19389;DHT22;9830;41.876;23.474;2023-02-15T05:21:10;-7.50;99.90
19389;DHT22;9830;41.876;23.474;2023-02-15T05:23:36;-7.50;99.90
19389;DHT22;9830;41.876;23.474;2023-02-15T05:26:02;-7.40;99.90
19389;DHT22;9830;41.876;23.474;2023-02-15T05:28:46;-7.50;99.90
19389;DHT22;9830;41.876;23.474;2023-02-15T05:31:17;-7.50;99.90
19389;DHT22;9830;41.876;23.474;2023-02-15T05:33:43;-7.50;99.90
19389;DHT22;9830;41.876;23.474;2023-02-15T05:36:10;-7.50;99.90
19389;DHT22;9830;41.876;23.474;2023-02-15T05:38:36;-7.50;99.90
19389;DHT22;9830;41.876;23.474;2023-02-15T05:41:03;-7.30;99.90
19389;DHT22;9830;41.876;23.474;2023-02-15T05:43:30;-6.80;99.90
19389;DHT22;9830;41.876;23.474;2023-02-15T05:45:55;-6.40;99.90
19389;DHT22;9830;41.876;23.474;2023-02-15T05:48:24;-5.80;99.90
19389;DHT22;9830;41.876;23.474;2023-02-15T05:51:07;-5.40;99.90
19389;DHT22;9830;41.876;23.474;2023-02-15T05:53:36;-4.90;99.90
19389;DHT22;9830;41.876;23.474;2023-02-15T05:56:03;-4.30;99.90
19389;DHT22;9830;41.876;23.474;2023-02-15T05:58:32;-4.00;99.90
19389;DHT22;9830;41.876;23.474;2023-02-15T06:00:57;-3.90;99.90
19389;DHT22;9830;41.876;23.474;2023-02-15T06:03:23;-2.90;99.90
19389;DHT22;9830;41.876;23.474;2023-02-15T06:05:51;-3.00;99.90
19389;DHT22;9830;41.876;23.474;2023-02-15T06:08:17;-2.40;99.90
19389;DHT22;9830;41.876;23.474;2023-02-15T06:10:45;-2.30;99.90
19389;DHT22;9830;41.876;23.474;2023-02-15T06:13:11;-1.30;99.90
19389;DHT22;9830;41.876;23.474;2023-02-15T06:15:36;-0.20;98.50
19389;DHT22;9830;41.876;23.474;2023-02-15T06:18:02;0.50;95.20
19389;DHT22;9830;41.876;23.474;2023-02-15T06:20:27;-0.10;96.80
19389;DHT22;9830;41.876;23.474;2023-02-15T06:22:53;0.60;95.50
19389;DHT22;9830;41.876;23.474;2023-02-15T06:25:19;-0.10;97.70
19389;DHT22;9830;41.876;23.474;2023-02-15T06:27:45;0.90;96.10
19389;DHT22;9830;41.876;23.474;2023-02-15T06:30:11;1.00;92.30
19389;DHT22;9830;41.876;23.474;2023-02-15T06:32:36;0.90;93.90
19389;DHT22;9830;41.876;23.474;2023-02-15T06:35:03;1.10;92.20
19389;DHT22;9830;41.876;23.474;2023-02-15T06:37:29;2.10;90.30
19389;DHT22;9830;41.876;23.474;2023-02-15T06:39:54;3.70;80.90
19389;DHT22;9830;41.876;23.474;2023-02-15T06:42:21;5.70;67.50
19389;DHT22;9830;41.876;23.474;2023-02-15T06:44:47;6.40;60.20
19389;DHT22;9830;41.876;23.474;2023-02-15T06:47:13;6.40;59.30
19389;DHT22;9830;41.876;23.474;2023-02-15T06:49:38;6.50;59.30
19389;DHT22;9830;41.876;23.474;2023-02-15T06:52:04;6.00;62.10
19389;DHT22;9830;41.876;23.474;2023-02-15T06:54:30;6.30;60.00
19389;DHT22;9830;41.876;23.474;2023-02-15T06:56:56;6.60;59.10
19389;DHT22;9830;41.876;23.474;2023-02-15T06:59:22;7.00;58.20
19389;DHT22;9830;41.876;23.474;2023-02-15T07:01:47;6.90;57.80
19389;DHT22;9830;41.876;23.474;2023-02-15T07:04:14;7.70;55.80
19389;DHT22;9830;41.876;23.474;2023-02-15T07:06:40;8.00;54.20
19389;DHT22;9830;41.876;23.474;2023-02-15T07:09:06;8.00;54.70
19389;DHT22;9830;41.876;23.474;2023-02-15T07:11:32;8.10;55.00
19389;DHT22;9830;41.876;23.474;2023-02-15T07:14:16;7.90;54.60
19389;DHT22;9830;41.876;23.474;2023-02-15T07:16:42;8.10;54.60
19389;DHT22;9830;41.876;23.474;2023-02-15T07:19:08;8.10;52.40
19389;DHT22;9830;41.876;23.474;2023-02-15T07:21:34;7.70;54.80
19389;DHT22;9830;41.876;23.474;2023-02-15T07:24:00;8.40;54.80
19389;DHT22;9830;41.876;23.474;2023-02-15T07:26:26;9.30;49.10
19389;DHT22;9830;41.876;23.474;2023-02-15T07:28:52;9.60;49.90
19389;DHT22;9830;41.876;23.474;2023-02-15T07:31:17;10.30;46.80
19389;DHT22;9830;41.876;23.474;2023-02-15T07:33:43;10.70;45.80
19389;DHT22;9830;41.876;23.474;2023-02-15T07:36:09;11.00;45.50
19389;DHT22;9830;41.876;23.474;2023-02-15T07:38:39;9.90;45.10
19389;DHT22;9830;41.876;23.474;2023-02-15T07:41:10;9.50;50.00
19389;DHT22;9830;41.876;23.474;2023-02-15T07:43:38;9.30;47.90
19389;DHT22;9830;41.876;23.474;2023-02-15T07:46:06;11.10;45.50
19389;DHT22;9830;41.876;23.474;2023-02-15T07:48:34;11.30;44.30
19389;DHT22;9830;41.876;23.474;2023-02-15T07:51:01;10.10;48.40
19389;DHT22;9830;41.876;23.474;2023-02-15T07:53:27;9.30;50.60
19389;DHT22;9830;41.876;23.474;2023-02-15T07:55:53;8.00;54.20
19389;DHT22;9830;41.876;23.474;2023-02-15T07:58:19;9.30;54.50
19389;DHT22;9830;41.876;23.474;2023-02-15T08:00:45;9.80;51.80
19389;DHT22;9830;41.876;23.474;2023-02-15T08:03:26;9.90;49.70
19389;DHT22;9830;41.876;23.474;2023-02-15T08:05:58;11.60;43.20
19389;DHT22;9830;41.876;23.474;2023-02-15T08:08:27;13.10;43.20
19389;DHT22;9830;41.876;23.474;2023-02-15T08:11:26;14.20;39.40
19389;DHT22;9830;41.876;23.474;2023-02-15T08:19:19;13.80;40.50
19389;DHT22;9830;41.876;23.474;2023-02-15T08:24:18;12.60;41.70
19389;DHT22;9830;41.876;23.474;2023-02-15T08:26:44;13.40;42.30
19389;DHT22;9830;41.876;23.474;2023-02-15T08:29:16;14.20;40.10
19389;DHT22;9830;41.876;23.474;2023-02-15T08:31:42;13.30;40.20
19389;DHT22;9830;41.876;23.474;2023-02-15T08:34:09;14.10;40.30
19389;DHT22;9830;41.876;23.474;2023-02-15T08:36:36;13.40;40.90
19389;DHT22;9830;41.876;23.474;2023-02-15T08:39:04;13.90;40.40
19389;DHT22;9830;41.876;23.474;2023-02-15T08:41:37;13.10;41.70
19389;DHT22;9830;41.876;23.474;2023-02-15T08:44:07;14.30;40.20
19389;DHT22;9830;41.876;23.474;2023-02-15T08:46:36;13.90;41.00
19389;DHT22;9830;41.876;23.474;2023-02-15T08:49:02;13.10;42.60
19389;DHT22;9830;41.876;23.474;2023-02-15T08:51:30;13.20;41.40
19389;DHT22;9830;41.876;23.474;2023-02-15T08:53:59;13.90;40.80
19389;DHT22;9830;41.876;23.474;2023-02-15T08:56:31;14.80;40.00
19389;DHT22;9830;41.876;23.474;2023-02-15T08:58:57;15.00;39.00
19389;DHT22;9830;41.876;23.474;2023-02-15T09:01:27;15.60;37.80
19389;DHT22;9830;41.876;23.474;2023-02-15T09:04:02;14.30;40.20
19389;DHT22;9830;41.876;23.474;2023-02-15T09:06:30;14.30;38.90
19389;DHT22;9830;41.876;23.474;2023-02-15T09:08:56;13.70;40.10
19389;DHT22;9830;41.876;23.474;2023-02-15T09:11:27;13.70;42.00
19389;DHT22;9830;41.876;23.474;2023-02-15T09:14:02;15.90;38.40
19389;DHT22;9830;41.876;23.474;2023-02-15T09:16:30;16.70;36.80
19389;DHT22;9830;41.876;23.474;2023-02-15T09:18:57;16.00;37.50
19389;DHT22;9830;41.876;23.474;2023-02-15T09:21:23;16.60;36.40
19389;DHT22;9830;41.876;23.474;2023-02-15T09:23:56;16.90;36.10
19389;DHT22;9830;41.876;23.474;2023-02-15T09:26:23;16.70;36.00
19389;DHT22;9830;41.876;23.474;2023-02-15T09:28:55;16.50;36.30
19389;DHT22;9830;41.876;23.474;2023-02-15T09:31:25;15.70;37.70
19389;DHT22;9830;41.876;23.474;2023-02-15T09:33:51;15.10;36.90
19389;DHT22;9830;41.876;23.474;2023-02-15T09:36:18;15.00;38.30
19389;DHT22;9830;41.876;23.474;2023-02-15T09:38:45;13.70;41.00
19389;DHT22;9830;41.876;23.474;2023-02-15T09:55:51;15.50;37.50
19389;DHT22;9830;41.876;23.474;2023-02-15T09:59:06;15.30;38.40
19389;DHT22;9830;41.876;23.474;2023-02-15T10:01:36;15.40;37.80
19389;DHT22;9830;41.876;23.474;2023-02-15T10:09:58;15.40;37.50
19389;DHT22;9830;41.876;23.474;2023-02-15T10:20:18;15.50;37.30
19389;DHT22;9830;41.876;23.474;2023-02-15T10:28:41;15.20;38.00
19389;DHT22;9830;41.876;23.474;2023-02-15T10:31:24;15.40;37.80
19389;DHT22;9830;41.876;23.474;2023-02-15T10:56:07;13.30;44.50
19389;DHT22;9830;41.876;23.474;2023-02-15T11:04:20;12.60;46.00
19389;DHT22;9830;41.876;23.474;2023-02-15T11:06:54;12.00;48.80
19389;DHT22;9830;41.876;23.474;2023-02-15T11:09:23;11.30;51.90
19389;DHT22;9830;41.876;23.474;2023-02-15T11:11:53;10.90;55.00
19389;DHT22;9830;41.876;23.474;2023-02-15T11:16:57;9.70;60.30
19389;DHT22;9830;41.876;23.474;2023-02-15T11:21:57;9.00;67.00
19389;DHT22;9830;41.876;23.474;2023-02-15T11:24:29;9.00;67.30
19389;DHT22;9830;41.876;23.474;2023-02-15T11:27:21;8.70;68.50
19389;DHT22;9830;41.876;23.474;2023-02-15T11:29:56;8.70;71.60
19389;DHT22;9830;41.876;23.474;2023-02-15T11:32:30;8.80;69.40
19389;DHT22;9830;41.876;23.474;2023-02-15T11:37:50;8.60;72.80
19389;DHT22;9830;41.876;23.474;2023-02-15T11:40:35;8.80;71.40
19389;DHT22;9830;41.876;23.474;2023-02-15T11:43:16;8.80;70.20
19389;DHT22;9830;41.876;23.474;2023-02-15T11:45:44;8.70;70.40
19389;DHT22;9830;41.876;23.474;2023-02-15T11:48:12;8.70;72.10
19389;DHT22;9830;41.876;23.474;2023-02-15T11:50:40;8.70;72.30
19389;DHT22;9830;41.876;23.474;2023-02-15T11:53:16;8.50;72.20
19389;DHT22;9830;41.876;23.474;2023-02-15T11:55:44;8.60;73.30
19389;DHT22;9830;41.876;23.474;2023-02-15T11:58:33;8.60;73.60
19389;DHT22;9830;41.876;23.474;2023-02-15T12:01:31;8.60;74.00
19389;DHT22;9830;41.876;23.474;2023-02-15T12:06:59;8.80;73.40
19389;DHT22;9830;41.876;23.474;2023-02-15T12:09:38;8.70;70.00
19389;DHT22;9830;41.876;23.474;2023-02-15T12:15:01;8.60;69.90
19389;DHT22;9830;41.876;23.474;2023-02-15T12:17:50;8.40;70.50
19389;DHT22;9830;41.876;23.474;2023-02-15T12:22:59;8.50;74.00
19389;DHT22;9830;41.876;23.474;2023-02-15T12:28:00;8.40;71.70
19389;DHT22;9830;41.876;23.474;2023-02-15T12:30:32;8.30;70.00
19389;DHT22;9830;41.876;23.474;2023-02-15T12:35:35;8.20;72.90
19389;DHT22;9830;41.876;23.474;2023-02-15T12:38:23;8.30;72.30
19389;DHT22;9830;41.876;23.474;2023-02-15T12:41:04;8.30;73.00
19389;DHT22;9830;41.876;23.474;2023-02-15T12:43:36;8.30;73.30
19389;DHT22;9830;41.876;23.474;2023-02-15T12:46:26;8.40;73.10
19389;DHT22;9830;41.876;23.474;2023-02-15T12:49:17;8.50;72.30
19389;DHT22;9830;41.876;23.474;2023-02-15T12:54:46;8.60;71.90
19389;DHT22;9830;41.876;23.474;2023-02-15T12:59:49;8.40;71.90
19389;DHT22;9830;41.876;23.474;2023-02-15T13:02:53;8.40;72.90
19389;DHT22;9830;41.876;23.474;2023-02-15T13:05:34;8.30;71.30
19389;DHT22;9830;41.876;23.474;2023-02-15T13:08:17;8.20;73.00
19389;DHT22;9830;41.876;23.474;2023-02-15T13:13:23;8.20;72.30
19389;DHT22;9830;41.876;23.474;2023-02-15T13:15:55;8.20;73.30
19389;DHT22;9830;41.876;23.474;2023-02-15T13:18:37;8.10;74.50
19389;DHT22;9830;41.876;23.474;2023-02-15T13:21:31;8.10;74.50
19389;DHT22;9830;41.876;23.474;2023-02-15T13:24:01;8.20;75.80
19389;DHT22;9830;41.876;23.474;2023-02-15T13:26:31;8.00;75.70
19389;DHT22;9830;41.876;23.474;2023-02-15T13:29:22;8.00;75.80
19389;DHT22;9830;41.876;23.474;2023-02-15T13:31:47;8.00;76.50
19389;DHT22;9830;41.876;23.474;2023-02-15T13:34:32;8.00;75.40
19389;DHT22;9830;41.876;23.474;2023-02-15T13:37:12;7.80;75.50
19389;DHT22;9830;41.876;23.474;2023-02-15T13:40:01;7.90;77.60
19389;DHT22;9830;41.876;23.474;2023-02-15T13:42:56;7.90;76.10
19389;DHT22;9830;41.876;23.474;2023-02-15T13:59:24;7.70;76.90
19389;DHT22;9830;41.876;23.474;2023-02-15T14:07:28;7.40;79.80
19389;DHT22;9830;41.876;23.474;2023-02-15T14:13:02;7.50;79.50
19389;DHT22;9830;41.876;23.474;2023-02-15T14:15:41;7.40;80.20
19389;DHT22;9830;41.876;23.474;2023-02-15T14:18:40;7.40;81.90
19389;DHT22;9830;41.876;23.474;2023-02-15T14:21:15;7.30;80.90
19389;DHT22;9830;41.876;23.474;2023-02-15T14:35:05;6.90;87.10
19389;DHT22;9830;41.876;23.474;2023-02-15T14:40:42;6.80;88.00
19389;DHT22;9830;41.876;23.474;2023-02-15T14:46:30;6.70;88.80
19389;DHT22;9830;41.876;23.474;2023-02-15T14:49:13;6.60;89.40
19389;DHT22;9830;41.876;23.474;2023-02-15T14:54:10;6.50;90.20
19389;DHT22;9830;41.876;23.474;2023-02-15T14:56:36;6.50;90.50
19389;DHT22;9830;41.876;23.474;2023-02-15T14:59:17;6.30;90.90
19389;DHT22;9830;41.876;23.474;2023-02-15T15:07:18;6.10;92.10
19389;DHT22;9830;41.876;23.474;2023-02-15T15:09:48;5.90;92.30
19389;DHT22;9830;41.876;23.474;2023-02-15T15:14:53;5.60;93.30
19389;DHT22;9830;41.876;23.474;2023-02-15T15:22:29;5.10;95.00
19389;DHT22;9830;41.876;23.474;2023-02-15T15:25:00;4.90;95.70
19389;DHT22;9830;41.876;23.474;2023-02-15T15:27:39;4.80;96.20
19389;DHT22;9830;41.876;23.474;2023-02-15T15:38:47;4.40;98.20
19389;DHT22;9830;41.876;23.474;2023-02-15T15:41:32;4.30;98.30
19389;DHT22;9830;41.876;23.474;2023-02-15T15:49:45;4.00;99.50
19389;DHT22;9830;41.876;23.474;2023-02-15T15:52:17;4.00;99.50
19389;DHT22;9830;41.876;23.474;2023-02-15T15:54:45;3.90;99.50
19389;DHT22;9830;41.876;23.474;2023-02-15T15:57:34;3.80;99.80
19389;DHT22;9830;41.876;23.474;2023-02-15T16:00:05;3.80;99.90
19389;DHT22;9830;41.876;23.474;2023-02-15T16:02:53;3.70;99.90
19389;DHT22;9830;41.876;23.474;2023-02-15T16:05:19;3.60;99.90
19389;DHT22;9830;41.876;23.474;2023-02-15T16:07:45;3.50;99.90
19389;DHT22;9830;41.876;23.474;2023-02-15T16:10:23;3.40;99.90
19389;DHT22;9830;41.876;23.474;2023-02-15T16:12:50;3.30;99.90
19389;DHT22;9830;41.876;23.474;2023-02-15T16:15:25;3.30;99.90
19389;DHT22;9830;41.876;23.474;2023-02-15T16:17:54;3.20;99.90
19389;DHT22;9830;41.876;23.474;2023-02-15T16:20:24;3.20;99.90
19389;DHT22;9830;41.876;23.474;2023-02-15T16:23:29;3.20;99.90
19389;DHT22;9830;41.876;23.474;2023-02-15T16:29:17;3.10;99.90
19389;DHT22;9830;41.876;23.474;2023-02-15T16:31:56;3.10;99.90
19389;DHT22;9830;41.876;23.474;2023-02-15T16:34:21;3.00;99.90
19389;DHT22;9830;41.876;23.474;2023-02-15T16:36:47;2.90;99.90
19389;DHT22;9830;41.876;23.474;2023-02-15T16:39:19;2.90;99.90
19389;DHT22;9830;41.876;23.474;2023-02-15T16:41:45;2.90;99.90
19389;DHT22;9830;41.876;23.474;2023-02-15T16:44:19;2.80;99.90
19389;DHT22;9830;41.876;23.474;2023-02-15T16:46:50;2.70;99.90
19389;DHT22;9830;41.876;23.474;2023-02-15T16:49:22;2.60;99.90
19389;DHT22;9830;41.876;23.474;2023-02-15T16:52:00;2.70;99.90
19389;DHT22;9830;41.876;23.474;2023-02-15T16:54:28;2.50;99.90
19389;DHT22;9830;41.876;23.474;2023-02-15T16:56:55;2.30;99.90
19389;DHT22;9830;41.876;23.474;2023-02-15T17:01:53;1.90;99.90
19389;DHT22;9830;41.876;23.474;2023-02-15T17:07:18;1.60;99.90
19389;DHT22;9830;41.876;23.474;2023-02-15T17:09:52;1.50;99.90
19389;DHT22;9830;41.876;23.474;2023-02-15T17:12:43;1.30;99.90
19389;DHT22;9830;41.876;23.474;2023-02-15T17:15:26;1.30;99.90
19389;DHT22;9830;41.876;23.474;2023-02-15T17:17:58;1.20;99.90
19389;DHT22;9830;41.876;23.474;2023-02-15T17:20:25;0.90;99.90
19389;DHT22;9830;41.876;23.474;2023-02-15T17:22:52;0.80;99.90
19389;DHT22;9830;41.876;23.474;2023-02-15T17:25:26;0.70;99.90
19389;DHT22;9830;41.876;23.474;2023-02-15T17:27:55;0.60;99.90
19389;DHT22;9830;41.876;23.474;2023-02-15T17:30:32;0.60;99.90
19389;DHT22;9830;41.876;23.474;2023-02-15T17:33:01;0.50;99.90
19389;DHT22;9830;41.876;23.474;2023-02-15T17:35:31;0.40;99.90
19389;DHT22;9830;41.876;23.474;2023-02-15T17:38:17;0.30;99.90
19389;DHT22;9830;41.876;23.474;2023-02-15T17:40:44;0.10;99.90
19389;DHT22;9830;41.876;23.474;2023-02-15T17:43:09;0.00;99.90
19389;DHT22;9830;41.876;23.474;2023-02-15T17:45:38;0.00;99.90
19389;DHT22;9830;41.876;23.474;2023-02-15T17:48:06;0.00;99.90
19389;DHT22;9830;41.876;23.474;2023-02-15T17:50:40;0.00;99.90
19389;DHT22;9830;41.876;23.474;2023-02-15T17:53:08;-0.10;99.90
19389;DHT22;9830;41.876;23.474;2023-02-15T17:55:34;-0.20;99.90
19389;DHT22;9830;41.876;23.474;2023-02-15T17:58:02;-0.30;99.90
19389;DHT22;9830;41.876;23.474;2023-02-15T18:00:30;-0.30;99.90
19389;DHT22;9830;41.876;23.474;2023-02-15T18:03:15;-0.40;99.90
19389;DHT22;9830;41.876;23.474;2023-02-15T18:06:00;-0.50;99.90
19389;DHT22;9830;41.876;23.474;2023-02-15T18:08:45;-0.60;99.90
19389;DHT22;9830;41.876;23.474;2023-02-15T18:11:29;-0.60;99.90
19389;DHT22;9830;41.876;23.474;2023-02-15T18:14:09;-0.70;99.90
19389;DHT22;9830;41.876;23.474;2023-02-15T18:16:40;-0.70;99.90
19389;DHT22;9830;41.876;23.474;2023-02-15T18:19:26;-0.70;99.90
19389;DHT22;9830;41.876;23.474;2023-02-15T18:21:52;-0.80;99.90
19389;DHT22;9830;41.876;23.474;2023-02-15T18:24:22;-0.80;99.90
19389;DHT22;9830;41.876;23.474;2023-02-15T18:26:52;-0.90;99.90
19389;DHT22;9830;41.876;23.474;2023-02-15T18:29:19;-0.90;99.90
19389;DHT22;9830;41.876;23.474;2023-02-15T18:31:47;-0.90;99.90
19389;DHT22;9830;41.876;23.474;2023-02-15T18:36:48;-1.10;99.90
19389;DHT22;9830;41.876;23.474;2023-02-15T18:39:36;-1.20;99.90
19389;DHT22;9830;41.876;23.474;2023-02-15T18:42:05;-1.30;99.90
19389;DHT22;9830;41.876;23.474;2023-02-15T18:44:31;-1.30;99.90
19389;DHT22;9830;41.876;23.474;2023-02-15T18:46:57;-1.40;99.90
19389;DHT22;9830;41.876;23.474;2023-02-15T18:49:22;-1.40;99.90
19389;DHT22;9830;41.876;23.474;2023-02-15T18:51:48;-1.50;99.90
19389;DHT22;9830;41.876;23.474;2023-02-15T18:54:20;-1.50;99.90
19389;DHT22;9830;41.876;23.474;2023-02-15T18:56:54;-1.60;99.90
19389;DHT22;9830;41.876;23.474;2023-02-15T18:59:22;-1.60;99.90
19389;DHT22;9830;41.876;23.474;2023-02-15T19:01:49;-1.70;99.90
19389;DHT22;9830;41.876;23.474;2023-02-15T19:04:15;-1.70;99.90
19389;DHT22;9830;41.876;23.474;2023-02-15T19:06:44;-1.70;99.90
19389;DHT22;9830;41.876;23.474;2023-02-15T19:09:22;-1.70;99.90
19389;DHT22;9830;41.876;23.474;2023-02-15T19:11:51;-1.80;99.90
19389;DHT22;9830;41.876;23.474;2023-02-15T19:14:29;-1.80;99.90
19389;DHT22;9830;41.876;23.474;2023-02-15T19:16:56;-1.90;99.90
19389;DHT22;9830;41.876;23.474;2023-02-15T19:19:22;-2.10;99.90
19389;DHT22;9830;41.876;23.474;2023-02-15T19:21:48;-2.10;99.90
19389;DHT22;9830;41.876;23.474;2023-02-15T19:24:18;-2.10;99.90
19389;DHT22;9830;41.876;23.474;2023-02-15T19:26:46;-2.20;99.90
19389;DHT22;9830;41.876;23.474;2023-02-15T19:29:15;-2.20;99.90
19389;DHT22;9830;41.876;23.474;2023-02-15T19:31:42;-2.20;99.90
19389;DHT22;9830;41.876;23.474;2023-02-15T19:34:16;-2.30;99.90
19389;DHT22;9830;41.876;23.474;2023-02-15T19:36:48;-2.30;99.90
19389;DHT22;9830;41.876;23.474;2023-02-15T19:39:36;-2.40;99.90